sensor_id;sensor_type;location;lat;lon;timestamp;P1;durP1;ratioP1;P2;durP2;ratioP2
27857;SDS011;16852;51.446;6.528;2022-12-18T00:01:56;24.08;;;10.98;;
27857;SDS011;16852;51.446;6.528;2022-12-18T00:03:59;21.65;;;10.82;;
27857;SDS011;16852;51.446;6.528;2022-12-18T00:06:05;22.33;;;10.93;;
27857;SDS011;16852;51.446;6.528;2022-12-18T00:08:06;19.90;;;9.85;;
27857;SDS011;16852;51.446;6.528;2022-12-18T00:10:07;20.27;;;9.90;;
27857;SDS011;16852;51.446;6.528;2022-12-18T00:12:08;20.15;;;9.48;;
27857;SDS011;16852;51.446;6.528;2022-12-18T00:14:09;18.23;;;9.68;;
27857;SDS011;16852;51.446;6.528;2022-12-18T00:16:13;20.13;;;10.05;;
27857;SDS011;16852;51.446;6.528;2022-12-18T00:18:14;20.35;;;8.98;;
27857;SDS011;16852;51.446;6.528;2022-12-18T00:20:15;21.83;;;9.43;;
27857;SDS011;16852;51.446;6.528;2022-12-18T00:22:20;20.15;;;9.85;;
27857;SDS011;16852;51.446;6.528;2022-12-18T00:24:21;23.65;;;10.68;;
27857;SDS011;16852;51.446;6.528;2022-12-18T00:26:22;20.60;;;9.55;;
27857;SDS011;16852;51.446;6.528;2022-12-18T00:28:24;21.92;;;10.10;;
27857;SDS011;16852;51.446;6.528;2022-12-18T00:30:25;22.25;;;10.95;;
27857;SDS011;16852;51.446;6.528;2022-12-18T00:32:25;21.08;;;10.50;;
27857;SDS011;16852;51.446;6.528;2022-12-18T00:34:26;18.67;;;9.05;;
27857;SDS011;16852;51.446;6.528;2022-12-18T00:36:30;20.73;;;9.40;;
27857;SDS011;16852;51.446;6.528;2022-12-18T00:38:32;22.15;;;9.98;;
27857;SDS011;16852;51.446;6.528;2022-12-18T00:40:34;19.67;;;9.30;;
27857;SDS011;16852;51.446;6.528;2022-12-18T00:42:34;24.50;;;10.10;;
27857;SDS011;16852;51.446;6.528;2022-12-18T00:44:53;18.83;;;9.07;;
27857;SDS011;16852;51.446;6.528;2022-12-18T00:46:54;21.85;;;10.23;;
27857;SDS011;16852;51.446;6.528;2022-12-18T00:48:55;19.02;;;9.75;;
27857;SDS011;16852;51.446;6.528;2022-12-18T00:50:55;22.10;;;9.60;;
27857;SDS011;16852;51.446;6.528;2022-12-18T00:52:56;19.85;;;9.40;;
27857;SDS011;16852;51.446;6.528;2022-12-18T00:54:56;18.35;;;8.20;;
27857;SDS011;16852;51.446;6.528;2022-12-18T00:56:57;21.48;;;9.40;;
27857;SDS011;16852;51.446;6.528;2022-12-18T00:58:57;18.48;;;9.40;;
27857;SDS011;16852;51.446;6.528;2022-12-18T01:00:58;21.05;;;8.88;;
27857;SDS011;16852;51.446;6.528;2022-12-18T01:02:58;20.17;;;8.95;;
27857;SDS011;16852;51.446;6.528;2022-12-18T01:04:59;22.70;;;9.80;;
27857;SDS011;16852;51.446;6.528;2022-12-18T01:07:00;17.13;;;8.48;;
27857;SDS011;16852;51.446;6.528;2022-12-18T01:09:00;20.63;;;8.98;;
27857;SDS011;16852;51.446;6.528;2022-12-18T01:11:06;19.83;;;9.20;;
27857;SDS011;16852;51.446;6.528;2022-12-18T01:13:09;20.25;;;9.18;;
27857;SDS011;16852;51.446;6.528;2022-12-18T01:15:10;16.92;;;8.43;;
27857;SDS011;16852;51.446;6.528;2022-12-18T01:17:13;18.33;;;8.88;;
27857;SDS011;16852;51.446;6.528;2022-12-18T01:19:14;18.35;;;8.32;;
27857;SDS011;16852;51.446;6.528;2022-12-18T01:21:15;16.52;;;7.97;;
27857;SDS011;16852;51.446;6.528;2022-12-18T01:23:16;18.10;;;8.18;;
27857;SDS011;16852;51.446;6.528;2022-12-18T01:25:16;17.23;;;8.95;;
27857;SDS011;16852;51.446;6.528;2022-12-18T01:27:17;17.35;;;8.05;;
27857;SDS011;16852;51.446;6.528;2022-12-18T01:29:18;19.38;;;9.25;;
27857;SDS011;16852;51.446;6.528;2022-12-18T01:31:20;18.15;;;8.20;;
27857;SDS011;16852;51.446;6.528;2022-12-18T01:33:22;20.50;;;9.13;;
27857;SDS011;16852;51.446;6.528;2022-12-18T01:35:22;20.45;;;9.35;;
27857;SDS011;16852;51.446;6.528;2022-12-18T01:37:23;16.58;;;9.07;;
27857;SDS011;16852;51.446;6.528;2022-12-18T01:39:24;18.15;;;9.07;;
27857;SDS011;16852;51.446;6.528;2022-12-18T01:41:26;17.42;;;9.20;;
27857;SDS011;16852;51.446;6.528;2022-12-18T01:43:53;17.63;;;8.63;;
27857;SDS011;16852;51.446;6.528;2022-12-18T01:45:59;18.25;;;9.20;;
27857;SDS011;16852;51.446;6.528;2022-12-18T01:48:03;15.75;;;8.07;;
27857;SDS011;16852;51.446;6.528;2022-12-18T01:50:13;18.48;;;9.23;;
27857;SDS011;16852;51.446;6.528;2022-12-18T01:52:31;15.50;;;8.30;;
27857;SDS011;16852;51.446;6.528;2022-12-18T01:54:33;17.85;;;8.77;;
27857;SDS011;16852;51.446;6.528;2022-12-18T01:56:33;16.88;;;8.52;;
27857;SDS011;16852;51.446;6.528;2022-12-18T01:58:39;18.95;;;8.80;;
27857;SDS011;16852;51.446;6.528;2022-12-18T02:00:45;20.10;;;9.27;;
27857;SDS011;16852;51.446;6.528;2022-12-18T02:02:46;18.08;;;9.02;;
27857;SDS011;16852;51.446;6.528;2022-12-18T02:04:47;19.48;;;8.63;;
27857;SDS011;16852;51.446;6.528;2022-12-18T02:06:50;18.27;;;8.82;;
27857;SDS011;16852;51.446;6.528;2022-12-18T02:09:13;17.55;;;8.50;;
27857;SDS011;16852;51.446;6.528;2022-12-18T02:13:44;19.10;;;9.10;;
27857;SDS011;16852;51.446;6.528;2022-12-18T02:16:23;18.73;;;9.00;;
27857;SDS011;16852;51.446;6.528;2022-12-18T02:18:47;17.17;;;8.15;;
27857;SDS011;16852;51.446;6.528;2022-12-18T02:21:03;19.30;;;9.73;;
27857;SDS011;16852;51.446;6.528;2022-12-18T02:23:37;18.63;;;9.35;;
27857;SDS011;16852;51.446;6.528;2022-12-18T02:26:07;20.42;;;8.60;;
27857;SDS011;16852;51.446;6.528;2022-12-18T02:28:10;17.38;;;8.50;;
27857;SDS011;16852;51.446;6.528;2022-12-18T02:30:15;18.70;;;8.85;;
27857;SDS011;16852;51.446;6.528;2022-12-18T02:32:20;17.05;;;8.02;;
27857;SDS011;16852;51.446;6.528;2022-12-18T02:34:27;21.88;;;9.75;;
27857;SDS011;16852;51.446;6.528;2022-12-18T02:36:30;22.35;;;9.70;;
27857;SDS011;16852;51.446;6.528;2022-12-18T02:38:33;19.90;;;8.93;;
27857;SDS011;16852;51.446;6.528;2022-12-18T02:40:35;19.83;;;8.32;;
27857;SDS011;16852;51.446;6.528;2022-12-18T02:42:37;17.52;;;8.98;;
27857;SDS011;16852;51.446;6.528;2022-12-18T02:44:44;19.95;;;9.65;;
27857;SDS011;16852;51.446;6.528;2022-12-18T02:46:49;18.25;;;8.77;;
27857;SDS011;16852;51.446;6.528;2022-12-18T02:48:51;18.33;;;9.27;;
27857;SDS011;16852;51.446;6.528;2022-12-18T02:51:29;17.13;;;8.73;;
27857;SDS011;16852;51.446;6.528;2022-12-18T02:53:43;18.33;;;8.90;;
27857;SDS011;16852;51.446;6.528;2022-12-18T02:55:59;17.33;;;9.00;;
27857;SDS011;16852;51.446;6.528;2022-12-18T03:00:54;19.52;;;8.82;;
27857;SDS011;16852;51.446;6.528;2022-12-18T03:03:19;19.77;;;9.63;;
27857;SDS011;16852;51.446;6.528;2022-12-18T03:06:07;15.68;;;8.00;;
27857;SDS011;16852;51.446;6.528;2022-12-18T03:08:17;18.90;;;9.55;;
27857;SDS011;16852;51.446;6.528;2022-12-18T03:10:23;17.67;;;8.85;;
27857;SDS011;16852;51.446;6.528;2022-12-18T03:12:29;20.25;;;8.60;;
27857;SDS011;16852;51.446;6.528;2022-12-18T03:14:32;15.57;;;8.57;;
27857;SDS011;16852;51.446;6.528;2022-12-18T03:16:37;18.13;;;9.00;;
27857;SDS011;16852;51.446;6.528;2022-12-18T03:20:49;19.30;;;8.65;;
27857;SDS011;16852;51.446;6.528;2022-12-18T03:22:55;20.55;;;8.95;;
27857;SDS011;16852;51.446;6.528;2022-12-18T03:25:03;18.00;;;9.05;;
27857;SDS011;16852;51.446;6.528;2022-12-18T03:27:11;15.23;;;7.63;;
27857;SDS011;16852;51.446;6.528;2022-12-18T03:29:18;21.70;;;9.57;;
27857;SDS011;16852;51.446;6.528;2022-12-18T03:31:40;17.77;;;8.55;;
27857;SDS011;16852;51.446;6.528;2022-12-18T03:33:52;16.95;;;8.50;;
27857;SDS011;16852;51.446;6.528;2022-12-18T03:35:54;20.20;;;8.70;;
27857;SDS011;16852;51.446;6.528;2022-12-18T03:37:55;18.92;;;9.07;;
27857;SDS011;16852;51.446;6.528;2022-12-18T03:39:56;16.85;;;8.73;;
27857;SDS011;16852;51.446;6.528;2022-12-18T03:42:16;16.63;;;8.70;;
27857;SDS011;16852;51.446;6.528;2022-12-18T03:44:29;21.08;;;9.32;;
27857;SDS011;16852;51.446;6.528;2022-12-18T03:49:09;18.65;;;7.78;;
27857;SDS011;16852;51.446;6.528;2022-12-18T03:51:22;17.73;;;8.93;;
27857;SDS011;16852;51.446;6.528;2022-12-18T03:54:03;16.77;;;7.53;;
27857;SDS011;16852;51.446;6.528;2022-12-18T03:56:06;16.20;;;8.38;;
27857;SDS011;16852;51.446;6.528;2022-12-18T03:58:08;18.40;;;9.05;;
27857;SDS011;16852;51.446;6.528;2022-12-18T04:00:13;20.33;;;9.15;;
27857;SDS011;16852;51.446;6.528;2022-12-18T04:02:34;20.95;;;9.07;;
27857;SDS011;16852;51.446;6.528;2022-12-18T04:06:38;17.23;;;8.53;;
27857;SDS011;16852;51.446;6.528;2022-12-18T04:08:39;18.15;;;8.25;;
27857;SDS011;16852;51.446;6.528;2022-12-18T04:10:41;18.55;;;9.75;;
27857;SDS011;16852;51.446;6.528;2022-12-18T04:12:42;17.75;;;8.63;;
27857;SDS011;16852;51.446;6.528;2022-12-18T04:14:43;17.70;;;9.07;;
27857;SDS011;16852;51.446;6.528;2022-12-18T04:16:43;15.10;;;8.43;;
27857;SDS011;16852;51.446;6.528;2022-12-18T04:18:44;20.38;;;9.20;;
27857;SDS011;16852;51.446;6.528;2022-12-18T04:20:45;18.92;;;8.60;;
27857;SDS011;16852;51.446;6.528;2022-12-18T04:22:46;17.58;;;8.68;;
27857;SDS011;16852;51.446;6.528;2022-12-18T04:24:47;17.27;;;8.23;;
27857;SDS011;16852;51.446;6.528;2022-12-18T04:26:47;17.67;;;8.80;;
27857;SDS011;16852;51.446;6.528;2022-12-18T04:28:48;19.70;;;8.13;;
27857;SDS011;16852;51.446;6.528;2022-12-18T04:30:49;16.92;;;7.45;;
27857;SDS011;16852;51.446;6.528;2022-12-18T04:32:49;13.40;;;7.55;;
27857;SDS011;16852;51.446;6.528;2022-12-18T04:34:50;14.52;;;7.95;;
27857;SDS011;16852;51.446;6.528;2022-12-18T04:36:50;17.83;;;8.38;;
27857;SDS011;16852;51.446;6.528;2022-12-18T04:38:51;15.48;;;7.88;;
27857;SDS011;16852;51.446;6.528;2022-12-18T04:40:52;13.13;;;7.30;;
27857;SDS011;16852;51.446;6.528;2022-12-18T04:42:52;17.35;;;8.48;;
27857;SDS011;16852;51.446;6.528;2022-12-18T04:44:53;16.67;;;8.63;;
27857;SDS011;16852;51.446;6.528;2022-12-18T04:46:53;18.30;;;8.18;;
27857;SDS011;16852;51.446;6.528;2022-12-18T04:48:54;15.57;;;7.47;;
27857;SDS011;16852;51.446;6.528;2022-12-18T04:50:54;15.65;;;8.30;;
27857;SDS011;16852;51.446;6.528;2022-12-18T04:52:55;18.48;;;8.68;;
27857;SDS011;16852;51.446;6.528;2022-12-18T04:54:55;16.25;;;7.60;;
27857;SDS011;16852;51.446;6.528;2022-12-18T04:56:56;15.35;;;7.70;;
27857;SDS011;16852;51.446;6.528;2022-12-18T04:58:57;14.50;;;7.75;;
27857;SDS011;16852;51.446;6.528;2022-12-18T05:00:57;15.98;;;7.53;;
27857;SDS011;16852;51.446;6.528;2022-12-18T05:03:00;16.02;;;7.75;;
27857;SDS011;16852;51.446;6.528;2022-12-18T05:05:01;15.65;;;7.95;;
27857;SDS011;16852;51.446;6.528;2022-12-18T05:07:02;13.05;;;7.18;;
27857;SDS011;16852;51.446;6.528;2022-12-18T05:09:03;13.95;;;7.05;;
27857;SDS011;16852;51.446;6.528;2022-12-18T05:11:08;16.60;;;8.18;;
27857;SDS011;16852;51.446;6.528;2022-12-18T05:13:10;15.23;;;7.10;;
27857;SDS011;16852;51.446;6.528;2022-12-18T05:15:10;13.15;;;6.55;;
27857;SDS011;16852;51.446;6.528;2022-12-18T05:17:11;14.20;;;7.53;;
27857;SDS011;16852;51.446;6.528;2022-12-18T05:19:12;15.55;;;7.65;;
27857;SDS011;16852;51.446;6.528;2022-12-18T05:21:12;17.83;;;7.25;;
27857;SDS011;16852;51.446;6.528;2022-12-18T05:23:13;13.20;;;7.03;;
27857;SDS011;16852;51.446;6.528;2022-12-18T05:25:13;15.80;;;7.57;;
27857;SDS011;16852;51.446;6.528;2022-12-18T05:27:14;13.82;;;6.85;;
27857;SDS011;16852;51.446;6.528;2022-12-18T05:29:15;14.93;;;7.18;;
27857;SDS011;16852;51.446;6.528;2022-12-18T05:31:16;12.93;;;6.93;;
27857;SDS011;16852;51.446;6.528;2022-12-18T05:33:17;14.70;;;7.07;;
27857;SDS011;16852;51.446;6.528;2022-12-18T05:35:18;12.60;;;6.27;;
27857;SDS011;16852;51.446;6.528;2022-12-18T05:37:19;12.73;;;6.70;;
27857;SDS011;16852;51.446;6.528;2022-12-18T05:39:20;13.40;;;6.70;;
27857;SDS011;16852;51.446;6.528;2022-12-18T05:41:21;12.32;;;6.13;;
27857;SDS011;16852;51.446;6.528;2022-12-18T05:43:24;14.80;;;6.65;;
27857;SDS011;16852;51.446;6.528;2022-12-18T05:45:25;14.70;;;7.18;;
27857;SDS011;16852;51.446;6.528;2022-12-18T05:47:27;12.63;;;6.78;;
27857;SDS011;16852;51.446;6.528;2022-12-18T05:49:28;15.05;;;7.72;;
27857;SDS011;16852;51.446;6.528;2022-12-18T05:51:29;16.52;;;7.78;;
27857;SDS011;16852;51.446;6.528;2022-12-18T05:53:29;12.90;;;6.63;;
27857;SDS011;16852;51.446;6.528;2022-12-18T05:55:34;12.63;;;6.65;;
27857;SDS011;16852;51.446;6.528;2022-12-18T05:57:35;13.57;;;7.22;;
27857;SDS011;16852;51.446;6.528;2022-12-18T05:59:35;15.13;;;7.47;;
27857;SDS011;16852;51.446;6.528;2022-12-18T06:01:36;14.00;;;6.85;;
27857;SDS011;16852;51.446;6.528;2022-12-18T06:03:36;13.23;;;6.95;;
27857;SDS011;16852;51.446;6.528;2022-12-18T06:05:38;13.90;;;7.00;;
27857;SDS011;16852;51.446;6.528;2022-12-18T06:07:40;14.10;;;6.50;;
27857;SDS011;16852;51.446;6.528;2022-12-18T06:09:41;14.07;;;6.43;;
27857;SDS011;16852;51.446;6.528;2022-12-18T06:11:41;13.32;;;7.03;;
27857;SDS011;16852;51.446;6.528;2022-12-18T06:13:42;12.65;;;6.55;;
27857;SDS011;16852;51.446;6.528;2022-12-18T06:15:42;13.15;;;6.97;;
27857;SDS011;16852;51.446;6.528;2022-12-18T06:17:43;13.30;;;7.00;;
27857;SDS011;16852;51.446;6.528;2022-12-18T06:19:43;10.63;;;5.80;;
27857;SDS011;16852;51.446;6.528;2022-12-18T06:21:44;13.15;;;6.63;;
27857;SDS011;16852;51.446;6.528;2022-12-18T06:23:45;15.73;;;6.55;;
27857;SDS011;16852;51.446;6.528;2022-12-18T06:25:45;12.40;;;6.85;;
27857;SDS011;16852;51.446;6.528;2022-12-18T06:27:47;13.55;;;6.55;;
27857;SDS011;16852;51.446;6.528;2022-12-18T06:29:48;12.80;;;6.95;;
27857;SDS011;16852;51.446;6.528;2022-12-18T06:31:48;12.48;;;6.75;;
27857;SDS011;16852;51.446;6.528;2022-12-18T06:33:49;13.23;;;7.22;;
27857;SDS011;16852;51.446;6.528;2022-12-18T06:35:49;14.32;;;7.47;;
27857;SDS011;16852;51.446;6.528;2022-12-18T06:37:50;17.05;;;8.02;;
27857;SDS011;16852;51.446;6.528;2022-12-18T06:39:51;14.52;;;7.60;;
27857;SDS011;16852;51.446;6.528;2022-12-18T06:41:52;14.70;;;6.95;;
27857;SDS011;16852;51.446;6.528;2022-12-18T06:43:53;16.52;;;7.78;;
27857;SDS011;16852;51.446;6.528;2022-12-18T06:45:59;13.70;;;7.07;;
27857;SDS011;16852;51.446;6.528;2022-12-18T06:48:00;14.27;;;7.65;;
27857;SDS011;16852;51.446;6.528;2022-12-18T06:50:01;13.75;;;7.35;;
27857;SDS011;16852;51.446;6.528;2022-12-18T06:52:02;15.73;;;7.43;;
27857;SDS011;16852;51.446;6.528;2022-12-18T06:54:03;14.13;;;6.82;;
27857;SDS011;16852;51.446;6.528;2022-12-18T06:56:05;15.30;;;7.78;;
27857;SDS011;16852;51.446;6.528;2022-12-18T06:58:06;13.80;;;7.90;;
27857;SDS011;16852;51.446;6.528;2022-12-18T07:00:07;14.55;;;7.28;;
27857;SDS011;16852;51.446;6.528;2022-12-18T07:02:10;13.68;;;7.43;;
27857;SDS011;16852;51.446;6.528;2022-12-18T07:04:12;14.23;;;7.75;;
27857;SDS011;16852;51.446;6.528;2022-12-18T07:06:17;13.70;;;7.13;;
27857;SDS011;16852;51.446;6.528;2022-12-18T07:08:19;13.45;;;7.30;;
27857;SDS011;16852;51.446;6.528;2022-12-18T07:10:20;14.77;;;6.95;;
27857;SDS011;16852;51.446;6.528;2022-12-18T07:12:20;17.77;;;8.18;;
27857;SDS011;16852;51.446;6.528;2022-12-18T07:14:21;12.23;;;6.10;;
27857;SDS011;16852;51.446;6.528;2022-12-18T07:16:21;13.70;;;6.97;;
27857;SDS011;16852;51.446;6.528;2022-12-18T07:18:22;12.18;;;6.82;;
27857;SDS011;16852;51.446;6.528;2022-12-18T07:20:23;11.70;;;6.55;;
27857;SDS011;16852;51.446;6.528;2022-12-18T07:22:24;16.73;;;6.80;;
27857;SDS011;16852;51.446;6.528;2022-12-18T07:24:26;12.75;;;6.53;;
27857;SDS011;16852;51.446;6.528;2022-12-18T07:26:26;16.20;;;7.50;;
27857;SDS011;16852;51.446;6.528;2022-12-18T07:28:27;18.40;;;7.97;;
27857;SDS011;16852;51.446;6.528;2022-12-18T07:30:28;14.23;;;6.75;;
27857;SDS011;16852;51.446;6.528;2022-12-18T07:32:29;14.70;;;6.95;;
27857;SDS011;16852;51.446;6.528;2022-12-18T07:34:30;13.18;;;6.72;;
27857;SDS011;16852;51.446;6.528;2022-12-18T07:36:31;14.05;;;6.45;;
27857;SDS011;16852;51.446;6.528;2022-12-18T07:38:32;16.15;;;7.82;;
27857;SDS011;16852;51.446;6.528;2022-12-18T07:40:33;16.77;;;8.57;;
27857;SDS011;16852;51.446;6.528;2022-12-18T07:42:34;13.70;;;6.75;;
27857;SDS011;16852;51.446;6.528;2022-12-18T07:44:36;14.82;;;7.22;;
27857;SDS011;16852;51.446;6.528;2022-12-18T07:46:37;12.85;;;7.07;;
27857;SDS011;16852;51.446;6.528;2022-12-18T07:48:38;14.63;;;7.60;;
27857;SDS011;16852;51.446;6.528;2022-12-18T07:50:38;15.48;;;7.50;;
27857;SDS011;16852;51.446;6.528;2022-12-18T07:52:39;14.68;;;7.38;;
27857;SDS011;16852;51.446;6.528;2022-12-18T07:54:40;19.77;;;8.73;;
27857;SDS011;16852;51.446;6.528;2022-12-18T07:56:41;14.68;;;7.63;;
27857;SDS011;16852;51.446;6.528;2022-12-18T07:58:41;17.17;;;7.30;;
27857;SDS011;16852;51.446;6.528;2022-12-18T08:02:44;17.02;;;7.53;;
27857;SDS011;16852;51.446;6.528;2022-12-18T08:04:45;16.65;;;7.10;;
27857;SDS011;16852;51.446;6.528;2022-12-18T08:06:45;17.95;;;8.00;;
27857;SDS011;16852;51.446;6.528;2022-12-18T08:08:46;21.08;;;7.53;;
27857;SDS011;16852;51.446;6.528;2022-12-18T08:10:46;14.75;;;7.95;;
27857;SDS011;16852;51.446;6.528;2022-12-18T08:12:50;18.35;;;7.47;;
27857;SDS011;16852;51.446;6.528;2022-12-18T08:14:51;19.02;;;9.15;;
27857;SDS011;16852;51.446;6.528;2022-12-18T08:16:51;17.35;;;8.68;;
27857;SDS011;16852;51.446;6.528;2022-12-18T08:18:52;17.20;;;7.43;;
27857;SDS011;16852;51.446;6.528;2022-12-18T08:20:53;17.60;;;7.40;;
27857;SDS011;16852;51.446;6.528;2022-12-18T08:22:54;15.57;;;7.82;;
27857;SDS011;16852;51.446;6.528;2022-12-18T08:24:55;15.73;;;8.43;;
27857;SDS011;16852;51.446;6.528;2022-12-18T08:26:55;14.57;;;7.50;;
27857;SDS011;16852;51.446;6.528;2022-12-18T08:28:57;14.57;;;7.40;;
27857;SDS011;16852;51.446;6.528;2022-12-18T08:30:59;15.25;;;7.82;;
27857;SDS011;16852;51.446;6.528;2022-12-18T08:33:00;15.55;;;7.95;;
27857;SDS011;16852;51.446;6.528;2022-12-18T08:35:00;18.55;;;8.85;;
27857;SDS011;16852;51.446;6.528;2022-12-18T08:37:01;17.73;;;8.45;;
27857;SDS011;16852;51.446;6.528;2022-12-18T08:39:02;17.90;;;7.78;;
27857;SDS011;16852;51.446;6.528;2022-12-18T08:41:03;13.75;;;7.20;;
27857;SDS011;16852;51.446;6.528;2022-12-18T08:43:07;15.80;;;8.55;;
27857;SDS011;16852;51.446;6.528;2022-12-18T08:45:28;14.90;;;7.80;;
27857;SDS011;16852;51.446;6.528;2022-12-18T08:47:29;17.00;;;8.10;;
27857;SDS011;16852;51.446;6.528;2022-12-18T08:49:29;19.13;;;8.50;;
27857;SDS011;16852;51.446;6.528;2022-12-18T08:51:30;18.27;;;8.93;;
27857;SDS011;16852;51.446;6.528;2022-12-18T08:53:31;19.02;;;9.00;;
27857;SDS011;16852;51.446;6.528;2022-12-18T08:55:31;18.67;;;8.05;;
27857;SDS011;16852;51.446;6.528;2022-12-18T08:57:32;19.00;;;8.18;;
27857;SDS011;16852;51.446;6.528;2022-12-18T08:59:32;15.65;;;8.07;;
27857;SDS011;16852;51.446;6.528;2022-12-18T09:01:33;17.65;;;8.15;;
27857;SDS011;16852;51.446;6.528;2022-12-18T09:03:33;17.27;;;8.35;;
27857;SDS011;16852;51.446;6.528;2022-12-18T09:05:34;16.10;;;7.35;;
27857;SDS011;16852;51.446;6.528;2022-12-18T09:07:35;16.80;;;8.02;;
27857;SDS011;16852;51.446;6.528;2022-12-18T09:09:35;15.43;;;7.68;;
27857;SDS011;16852;51.446;6.528;2022-12-18T09:11:36;17.55;;;8.02;;
27857;SDS011;16852;51.446;6.528;2022-12-18T09:13:37;14.75;;;7.68;;
27857;SDS011;16852;51.446;6.528;2022-12-18T09:15:44;15.23;;;8.25;;
27857;SDS011;16852;51.446;6.528;2022-12-18T09:17:46;15.68;;;7.55;;
27857;SDS011;16852;51.446;6.528;2022-12-18T09:19:48;15.63;;;8.02;;
27857;SDS011;16852;51.446;6.528;2022-12-18T09:21:49;19.50;;;8.68;;
27857;SDS011;16852;51.446;6.528;2022-12-18T09:23:50;20.15;;;8.82;;
27857;SDS011;16852;51.446;6.528;2022-12-18T09:25:51;15.50;;;8.07;;
27857;SDS011;16852;51.446;6.528;2022-12-18T09:27:51;16.98;;;9.15;;
27857;SDS011;16852;51.446;6.528;2022-12-18T09:29:52;17.08;;;8.35;;
27857;SDS011;16852;51.446;6.528;2022-12-18T09:31:52;16.48;;;8.50;;
27857;SDS011;16852;51.446;6.528;2022-12-18T09:33:54;16.05;;;8.43;;
27857;SDS011;16852;51.446;6.528;2022-12-18T09:35:55;16.15;;;8.82;;
27857;SDS011;16852;51.446;6.528;2022-12-18T09:37:56;17.00;;;8.32;;
27857;SDS011;16852;51.446;6.528;2022-12-18T09:39:56;17.98;;;9.15;;
27857;SDS011;16852;51.446;6.528;2022-12-18T09:41:57;20.92;;;8.20;;
27857;SDS011;16852;51.446;6.528;2022-12-18T09:46:19;20.67;;;9.10;;
27857;SDS011;16852;51.446;6.528;2022-12-18T09:48:27;16.75;;;8.70;;
27857;SDS011;16852;51.446;6.528;2022-12-18T09:50:36;16.73;;;8.48;;
27857;SDS011;16852;51.446;6.528;2022-12-18T09:52:40;15.18;;;8.25;;
27857;SDS011;16852;51.446;6.528;2022-12-18T09:54:50;17.73;;;8.93;;
27857;SDS011;16852;51.446;6.528;2022-12-18T09:56:54;18.23;;;8.55;;
27857;SDS011;16852;51.446;6.528;2022-12-18T09:58:57;20.50;;;8.98;;
27857;SDS011;16852;51.446;6.528;2022-12-18T10:00:59;18.42;;;8.75;;
27857;SDS011;16852;51.446;6.528;2022-12-18T10:03:02;17.15;;;8.40;;
27857;SDS011;16852;51.446;6.528;2022-12-18T10:05:13;18.88;;;8.98;;
27857;SDS011;16852;51.446;6.528;2022-12-18T10:07:22;16.80;;;8.45;;
27857;SDS011;16852;51.446;6.528;2022-12-18T10:09:32;17.85;;;8.35;;
27857;SDS011;16852;51.446;6.528;2022-12-18T10:14:23;18.38;;;8.32;;
27857;SDS011;16852;51.446;6.528;2022-12-18T10:21:32;17.60;;;8.25;;
27857;SDS011;16852;51.446;6.528;2022-12-18T10:28:09;17.77;;;9.63;;
27857;SDS011;16852;51.446;6.528;2022-12-18T10:30:14;18.88;;;9.20;;
27857;SDS011;16852;51.446;6.528;2022-12-18T10:32:19;18.60;;;9.10;;
27857;SDS011;16852;51.446;6.528;2022-12-18T10:34:25;19.35;;;9.52;;
27857;SDS011;16852;51.446;6.528;2022-12-18T10:36:25;17.70;;;8.65;;
27857;SDS011;16852;51.446;6.528;2022-12-18T10:40:28;23.38;;;11.43;;
27857;SDS011;16852;51.446;6.528;2022-12-18T10:42:29;28.30;;;11.35;;
27857;SDS011;16852;51.446;6.528;2022-12-18T10:44:30;23.23;;;11.40;;
27857;SDS011;16852;51.446;6.528;2022-12-18T10:46:30;18.90;;;9.40;;
27857;SDS011;16852;51.446;6.528;2022-12-18T10:48:32;22.20;;;11.25;;
27857;SDS011;16852;51.446;6.528;2022-12-18T10:50:35;20.08;;;10.18;;
27857;SDS011;16852;51.446;6.528;2022-12-18T10:52:37;16.50;;;8.98;;
27857;SDS011;16852;51.446;6.528;2022-12-18T10:54:38;20.10;;;9.90;;
27857;SDS011;16852;51.446;6.528;2022-12-18T10:56:39;19.75;;;8.93;;
27857;SDS011;16852;51.446;6.528;2022-12-18T10:58:40;22.00;;;8.83;;
27857;SDS011;16852;51.446;6.528;2022-12-18T11:00:41;21.35;;;9.40;;
27857;SDS011;16852;51.446;6.528;2022-12-18T11:02:41;17.20;;;9.50;;
27857;SDS011;16852;51.446;6.528;2022-12-18T11:04:49;17.95;;;9.27;;
27857;SDS011;16852;51.446;6.528;2022-12-18T11:07:01;16.25;;;8.80;;
27857;SDS011;16852;51.446;6.528;2022-12-18T11:09:19;20.73;;;9.32;;
27857;SDS011;16852;51.446;6.528;2022-12-18T11:11:24;21.52;;;8.73;;
27857;SDS011;16852;51.446;6.528;2022-12-18T11:13:26;19.67;;;10.10;;
27857;SDS011;16852;51.446;6.528;2022-12-18T11:15:29;18.45;;;9.15;;
27857;SDS011;16852;51.446;6.528;2022-12-18T11:17:33;21.13;;;9.63;;
27857;SDS011;16852;51.446;6.528;2022-12-18T11:19:36;21.15;;;9.60;;
27857;SDS011;16852;51.446;6.528;2022-12-18T11:21:41;17.52;;;8.85;;
27857;SDS011;16852;51.446;6.528;2022-12-18T11:23:51;19.63;;;9.10;;
27857;SDS011;16852;51.446;6.528;2022-12-18T11:25:54;19.52;;;9.55;;
27857;SDS011;16852;51.446;6.528;2022-12-18T11:28:03;18.00;;;9.00;;
27857;SDS011;16852;51.446;6.528;2022-12-18T11:30:10;18.42;;;8.93;;
27857;SDS011;16852;51.446;6.528;2022-12-18T11:32:30;17.95;;;8.88;;
27857;SDS011;16852;51.446;6.528;2022-12-18T11:34:35;22.23;;;9.32;;
27857;SDS011;16852;51.446;6.528;2022-12-18T11:36:38;17.30;;;9.40;;
27857;SDS011;16852;51.446;6.528;2022-12-18T11:38:42;18.15;;;9.50;;
27857;SDS011;16852;51.446;6.528;2022-12-18T11:40:45;18.80;;;9.40;;
27857;SDS011;16852;51.446;6.528;2022-12-18T11:45:21;20.73;;;10.00;;
27857;SDS011;16852;51.446;6.528;2022-12-18T11:49:29;26.00;;;11.43;;
27857;SDS011;16852;51.446;6.528;2022-12-18T11:51:36;21.90;;;10.93;;
27857;SDS011;16852;51.446;6.528;2022-12-18T11:53:44;26.35;;;12.05;;
27857;SDS011;16852;51.446;6.528;2022-12-18T11:56:05;25.90;;;11.77;;
27857;SDS011;16852;51.446;6.528;2022-12-18T12:00:39;21.73;;;10.38;;
27857;SDS011;16852;51.446;6.528;2022-12-18T12:17:34;23.10;;;11.70;;
27857;SDS011;16852;51.446;6.528;2022-12-18T12:19:46;21.48;;;10.32;;
27857;SDS011;16852;51.446;6.528;2022-12-18T12:22:09;24.65;;;11.60;;
27857;SDS011;16852;51.446;6.528;2022-12-18T12:24:28;23.83;;;10.63;;
27857;SDS011;16852;51.446;6.528;2022-12-18T12:26:48;27.83;;;12.30;;
27857;SDS011;16852;51.446;6.528;2022-12-18T12:29:21;21.88;;;10.93;;
27857;SDS011;16852;51.446;6.528;2022-12-18T12:32:22;21.73;;;10.35;;
27857;SDS011;16852;51.446;6.528;2022-12-18T12:36:35;23.77;;;11.32;;
27857;SDS011;16852;51.446;6.528;2022-12-18T12:38:55;22.75;;;11.50;;
27857;SDS011;16852;51.446;6.528;2022-12-18T12:41:06;23.20;;;10.65;;
27857;SDS011;16852;51.446;6.528;2022-12-18T12:43:42;22.67;;;10.40;;
27857;SDS011;16852;51.446;6.528;2022-12-18T12:45:54;22.17;;;11.05;;
27857;SDS011;16852;51.446;6.528;2022-12-18T12:48:00;22.75;;;11.85;;
27857;SDS011;16852;51.446;6.528;2022-12-18T12:50:06;23.63;;;11.02;;
27857;SDS011;16852;51.446;6.528;2022-12-18T12:52:27;25.67;;;12.88;;
27857;SDS011;16852;51.446;6.528;2022-12-18T12:54:34;24.05;;;12.35;;
27857;SDS011;16852;51.446;6.528;2022-12-18T12:56:44;22.73;;;11.50;;
27857;SDS011;16852;51.446;6.528;2022-12-18T12:59:16;23.45;;;12.20;;
27857;SDS011;16852;51.446;6.528;2022-12-18T13:03:57;21.33;;;11.45;;
27857;SDS011;16852;51.446;6.528;2022-12-18T13:08:56;22.10;;;11.20;;
27857;SDS011;16852;51.446;6.528;2022-12-18T13:10:59;23.27;;;11.68;;
27857;SDS011;16852;51.446;6.528;2022-12-18T13:13:19;26.95;;;11.70;;
27857;SDS011;16852;51.446;6.528;2022-12-18T13:15:21;23.05;;;12.25;;
27857;SDS011;16852;51.446;6.528;2022-12-18T13:17:28;22.75;;;11.30;;
27857;SDS011;16852;51.446;6.528;2022-12-18T13:19:31;22.92;;;11.63;;